Hill City, ID (83337)

8:00 AM MDT on September 19, 2014 (GMT -0600)
one mile north of pine | Change Station
CLOSE
Current Station
Personal Weather Station
Location: Pine, ID
Elevation: 4349 ft
Nearby Weather Stations

Elev 4349 ft 43.50 °N, 115.31 °W | Updated 5 seconds ago

Clear
Clear
50.2 °F
Feels Like 50.2 °F
N
2.4
Wind Variable Wind from NW
Gusts 4.6 mph

Today
High -- | Low -- °F
--% Chance of Precip.
Yesterday
High -- | Low -- °F
Precip. -- in
7:24 AM 7:42 PM
Waning Crescent, 19% visible
Pressure 30.10 in
Visibility 10.0 miles
Clouds Clear
Dew Point 43 °F
Humidity 77%
Rainfall 0.00 in
Snow Depth 1 in , 0 in , 0 in
UV 0 out of 12
Pollen 7.90 out of 12
Air Quality Not available.
Flu Activity Not available.
METAR KSUN 191247Z 34010KT 10SM SKC 09/04 A3010

More Conditions Fewer Conditions

Pressure 30.10 in
Visibility 10.0 miles
Clouds Clear
Dew Point 43 °F
Humidity 77%
Rainfall 0.00 in
Snow Depth 1 in , 0 in , 0 in
UV 0 out of 12
Pollen 7.90 out of 12
Air Quality Not available.
Flu Activity Not available.
METAR KSUN 191247Z 34010KT 10SM SKC 09/04 A3010

More Conditions Fewer Conditions

10-Day Weather Forecast

Almanac

Astronomy

Sep. 19, 2014 Rise Set
Actual Time 7:24 AM MDT 7:42 PM MDT
Civil Twilight 6:55 AM MDT 8:11 PM MDT
Nautical Twilight 6:22 AM MDT 8:44 PM MDT
Astronomical Twilight 5:47 AM MDT 9:19 PM MDT
Moon 3:07 AM MDT 5:19 PM MDT
Length of Visible Light 13h 15m
Length of Day
12h 18m
Tomorrow will be 2m 56s shorter.
Waning Crescent, 19% of the Moon is Illuminated
Today
Waning Crescent
Sep 24
New
Oct 1
First Quarter
Oct 8
Full
Oct 15
Last Quarter

Today's Extremes

State Highs State Lows

Community

WunderPhotos

Upload Photos

1,754,614 photos uploaded!

WunderBlogs® & News

Nearby

Snow Depth

Station Depth Elevation
Galena 1 in 7440 ft
Myrtle Creek 0 in 3520 ft
Camas Creek Divide 0 in 5710 ft
Shanghi Summit 0 in 4570 ft
Hidden Lake 1 in 5040 ft

Earthquake Activity

City Distance Mag. Time & Date
No recent earthquake activity has been reported nearby.
Minimum magnitude displayed is 2.5.

Coastal Water Temperatures

Place Temperature
No Stations Reporting

Nearby Weather Stations